Sunstar — 9V2728 — position and weather

sailwx.info

Track history (hours):
 
Tides and Currents Weather Stations Pressure Air Temp Water Temp Dewpoint Dewpoint Depression Visibility Wind Speed Wind Dir Waves Ship Positions

Sunstar

Last reported at 2018-Jan-20 18:19 UTC. Time now 2018-Feb-19 14:18 UTC.
Position N 09°10' W 079°49'.
Warning: this ship's position is 29 days out of date.

Length 224 m; draft 11.9 m.

Type: Tanker. MMSI: 566013000.

Date/timePositionNaut miles runAvg speedWind from/ knotsBaromVisibWave heightAir tempDewpointWater temp
2018-Jan-20 18:19N 09°10' W 079°49'310.1
2018-Jan-20 18:00N 09°11' W 079°52'5 9.4
2018-Jan-20 17:30N 09°15' W 079°55'1 1.3
2018-Jan-20 16:53N 09°15' W 079°54'0 0.0
2018-Jan-20 16:29N 09°15' W 079°54'0 0.1
2018-Jan-20 15:59N 09°15' W 079°54'0 0.0
2018-Jan-20 15:29N 09°15' W 079°54'0 0.0
2018-Jan-20 14:56N 09°15' W 079°54'0 0.0
2018-Jan-20 14:29N 09°15' W 079°54'0 0.1
2018-Jan-20 14:00N 09°15' W 079°54'0 0.2
2018-Jan-20 13:29N 09°15' W 079°54'0 0.2
2018-Jan-20 13:00N 09°15' W 079°54'0 0.0
2018-Jan-20 12:30N 09°15' W 079°54'1 1.7
2018-Jan-20 12:00N 09°16' W 079°55'0 0.6
2018-Jan-20 11:30N 09°16' W 079°55'0 0.3
2018-Jan-20 11:00N 09°16' W 079°55'0 0.3
2018-Jan-20 10:30N 09°17' W 079°55'0 0.6
2018-Jan-20 10:00N 09°17' W 079°55'1 2.4
2018-Jan-20 09:29N 09°18' W 079°55'2 5.0
2018-Jan-20 09:00N 09°21' W 079°55'2 4.6
2018-Jan-20 08:30N 09°23' W 079°56'0 0.4
2018-Jan-20 07:59N 09°23' W 079°56'0 0.0
2018-Jan-20 07:29N 09°23' W 079°56'0 0.0
2018-Jan-20 06:59N 09°23' W 079°56'0 0.0
2018-Jan-20 06:29N 09°23' W 079°56'0 0.0
2018-Jan-20 05:59N 09°23' W 079°56'0 0.0
2018-Jan-20 05:29N 09°23' W 079°56'0 0.0
2018-Jan-20 04:59N 09°23' W 079°56'0 0.0
2018-Jan-20 04:29N 09°23' W 079°56'0 0.0
2018-Jan-20 03:59N 09°23' W 079°56'0 0.0
2018-Jan-20 03:29N 09°23' W 079°56'0 0.0
2018-Jan-20 02:56N 09°23' W 079°56'0 0.1
2018-Jan-20 02:29N 09°23' W 079°56'0 0.0
2018-Jan-20 01:56N 09°23' W 079°56'0 0.0
2018-Jan-20 01:29N 09°23' W 079°56'0 0.0
2018-Jan-20 00:59N 09°23' W 079°56'0 0.0
2018-Jan-20 00:26N 09°23' W 079°56'0 0.0
2018-Jan-19 23:59N 09°23' W 079°56'0 0.0
2018-Jan-19 23:26N 09°23' W 079°56'0 0.0
2018-Jan-19 22:59N 09°23' W 079°56'0 0.0
2018-Jan-19 22:29N 09°23' W 079°56'0 0.0
2018-Jan-19 21:59N 09°23' W 079°56'0 0.0
2018-Jan-19 21:29N 09°23' W 079°56'0 0.1
2018-Jan-19 20:59N 09°23' W 079°56'0 0.0
2018-Jan-19 20:29N 09°23' W 079°56'0 0.0
2018-Jan-19 19:59N 09°23' W 079°56'0 0.0
2018-Jan-19 19:29N 09°23' W 079°56'0 0.0
2018-Jan-19 18:59N 09°23' W 079°56'0 0.0
2018-Jan-19 18:29N 09°23' W 079°56'0 0.0
2018-Jan-19 17:59N 09°23' W 079°56'0 0.0
2018-Jan-19 17:29N 09°23' W 079°56'0 0.1
2018-Jan-19 16:59N 09°23' W 079°56'0 0.2
2018-Jan-19 16:29N 09°23' W 079°56'0 0.3
2018-Jan-19 15:59N 09°23' W 079°56'0 0.1
2018-Jan-19 15:29N 09°23' W 079°56'0 0.0
2018-Jan-19 14:59N 09°23' W 079°56'0 0.1
2018-Jan-19 14:30N 09°23' W 079°56'0 0.1
2018-Jan-19 14:00N 09°23' W 079°56'1 1.4
2018-Jan-19 13:30N 09°23' W 079°55'2 5.0
2018-Jan-19 13:00N 09°26' W 079°55'3 5.5
2018-Jan-19 12:30N 09°25' W 079°58'0 0.6
2018-Jan-19 11:58N 09°26' W 079°58'0 0.0
2018-Jan-19 11:22N 09°26' W 079°58'0 0.0
2018-Jan-19 10:58N 09°26' W 079°58'0 0.0
2018-Jan-19 10:28N 09°26' W 079°58'0 0.0
2018-Jan-19 09:58N 09°26' W 079°58'0 0.0
2018-Jan-19 09:28N 09°26' W 079°58'0 0.0
2018-Jan-19 08:58N 09°26' W 079°58'0 0.0
2018-Jan-19 08:28N 09°26' W 079°58'0 0.0
2018-Jan-19 07:58N 09°26' W 079°58'0 0.0
2018-Jan-19 07:28N 09°26' W 079°58'0 0.0
2018-Jan-19 06:58N 09°26' W 079°58'0 0.0
2018-Jan-19 06:28N 09°26' W 079°58'0 0.0
2018-Jan-19 05:58N 09°26' W 079°58'0 0.1
2018-Jan-19 05:28N 09°26' W 079°58'0 0.1
2018-Jan-19 05:00N 09°26' W 079°58'0 0.0
2018-Jan-19 03:07N 09°26' W 079°58'0 0.0
2018-Jan-19 02:58N 09°26' W 079°58'0 0.1
2018-Jan-19 02:29N 09°26' W 079°58'0 0.0
2018-Jan-19 02:00N 09°26' W 079°58'0 0.0
2018-Jan-19 01:30N 09°26' W 079°58'0 0.0
2018-Jan-19 01:00N 09°26' W 079°58'0 0.0
2018-Jan-19 00:27N 09°26' W 079°58'0 0.1
2018-Jan-19 00:00N 09°26' W 079°58'0 0.0
2018-Jan-18 23:30N 09°26' W 079°58'0 0.1
2018-Jan-18 23:00N 09°26' W 079°58'0 0.2
2018-Jan-18 22:30N 09°25' W 079°58'0 0.2
2018-Jan-18 22:00N 09°26' W 079°58'0 0.1
2018-Jan-18 21:30N 09°26' W 079°58'0 0.0
2018-Jan-18 21:00N 09°26' W 079°58'0 0.0
2018-Jan-18 20:30N 09°26' W 079°58'0 0.0
2018-Jan-18 20:00N 09°25' W 079°58'0 0.0
2018-Jan-18 19:28N 09°25' W 079°58'0 0.0
2018-Jan-18 18:59N 09°25' W 079°58'0 0.0
2018-Jan-18 18:29N 09°25' W 079°58'0 0.0
2018-Jan-18 17:59N 09°25' W 079°58'0 0.0
2018-Jan-18 17:29N 09°25' W 079°58'0 0.1
2018-Jan-18 16:56N 09°25' W 079°58'0 0.1
2018-Jan-18 16:29N 09°26' W 079°58'0 0.2
2018-Jan-18 15:59N 09°25' W 079°58'0 0.3
2018-Jan-18 15:29N 09°26' W 079°58'0 0.3
2018-Jan-18 15:00N 09°25' W 079°58'0 0.1
2018-Jan-18 14:30N 09°26' W 079°58'0 0.1
2018-Jan-18 13:54N 09°25' W 079°58'0 0.2
2018-Jan-18 13:27N 09°26' W 079°58'0 0.1
2018-Jan-18 12:59N 09°26' W 079°58'0 0.0
2018-Jan-18 12:29N 09°26' W 079°58'0 0.1
2018-Jan-18 11:59N 09°26' W 079°58'0 0.0
2018-Jan-18 11:22N 09°25' W 079°58'0 0.0
2018-Jan-18 10:58N 09°25' W 079°58'0 0.1
2018-Jan-18 10:28N 09°26' W 079°58'0 0.1
2018-Jan-18 09:59N 09°26' W 079°58'0 0.0
2018-Jan-18 09:30N 09°26' W 079°58'0 0.1
2018-Jan-18 08:58N 09°26' W 079°58'0 0.1
2018-Jan-18 08:28N 09°25' W 079°58'0 0.0
2018-Jan-18 07:58N 09°25' W 079°58'0 0.1
2018-Jan-18 07:28N 09°25' W 079°58'0 0.0
2018-Jan-18 07:00N 09°25' W 079°58'0 0.0
2018-Jan-18 06:30N 09°25' W 079°58'0 0.1
2018-Jan-18 05:58N 09°25' W 079°58'0 0.0
2018-Jan-18 05:25N 09°25' W 079°58'0 0.0
2018-Jan-18 04:59N 09°25' W 079°58'0 0.0
2018-Jan-18 04:29N 09°25' W 079°58'0 0.0
2018-Jan-18 04:00N 09°25' W 079°58'0 0.1
2018-Jan-18 03:29N 09°26' W 079°58'0 0.2
2018-Jan-18 03:00N 09°26' W 079°58'0 0.1
2018-Jan-18 02:30N 09°25' W 079°58'1 1.9
2018-Jan-18 02:00N 09°25' W 079°59'2 4.9
2018-Jan-18 01:31N 09°28' W 079°59'611.2
2018-Jan-18 01:00N 09°31' W 079°54'  
2018-Jan-11 12:54N 29°44' W 095°08'0 0.4
2018-Jan-11 12:30N 29°44' W 095°08'2 3.5
2018-Jan-11 12:00N 29°45' W 095°06'2 4.2
2018-Jan-11 11:30N 29°44' W 095°04'4 7.1
2018-Jan-11 11:01N 29°42' W 095°01'510.9
2018-Jan-11 10:30N 29°37' W 094°58'510.0
2018-Jan-11 10:00N 29°33' W 094°55'612.4
2018-Jan-11 09:30N 29°28' W 094°51'612.4
2018-Jan-11 09:00N 29°22' W 094°48'  
Track history (hours):
 
Tides and Currents Weather Stations Pressure Air Temp Water Temp Dewpoint Dewpoint Depression Visibility Wind Speed Wind Dir Waves Ship Positions

Sunstar

Last reported at 2018-Jan-20 18:19 UTC. Time now 2018-Feb-19 14:18 UTC.
Position N 09°10' W 079°49'.
Warning: this ship's position is 29 days out of date.

Length 224 m; draft 11.9 m.

Type: Tanker. MMSI: 566013000.

Date/timePositionNaut miles runAvg speedWind from/ knotsBaromVisibWave heightAir tempDewpointWater temp
2018-Jan-20 18:19N 09°10' W 079°49'310.1
2018-Jan-20 18:00N 09°11' W 079°52'5 9.4
2018-Jan-20 17:30N 09°15' W 079°55'1 1.3
2018-Jan-20 16:53N 09°15' W 079°54'0 0.0
2018-Jan-20 16:29N 09°15' W 079°54'0 0.1
2018-Jan-20 15:59N 09°15' W 079°54'0 0.0
2018-Jan-20 15:29N 09°15' W 079°54'0 0.0
2018-Jan-20 14:56N 09°15' W 079°54'0 0.0
2018-Jan-20 14:29N 09°15' W 079°54'0 0.1
2018-Jan-20 14:00N 09°15' W 079°54'0 0.2
2018-Jan-20 13:29N 09°15' W 079°54'0 0.2
2018-Jan-20 13:00N 09°15' W 079°54'0 0.0
2018-Jan-20 12:30N 09°15' W 079°54'1 1.7
2018-Jan-20 12:00N 09°16' W 079°55'0 0.6
2018-Jan-20 11:30N 09°16' W 079°55'0 0.3
2018-Jan-20 11:00N 09°16' W 079°55'0 0.3
2018-Jan-20 10:30N 09°17' W 079°55'0 0.6
2018-Jan-20 10:00N 09°17' W 079°55'1 2.4
2018-Jan-20 09:29N 09°18' W 079°55'2 5.0
2018-Jan-20 09:00N 09°21' W 079°55'2 4.6
2018-Jan-20 08:30N 09°23' W 079°56'0 0.4
2018-Jan-20 07:59N 09°23' W 079°56'0 0.0
2018-Jan-20 07:29N 09°23' W 079°56'0 0.0
2018-Jan-20 06:59N 09°23' W 079°56'0 0.0
2018-Jan-20 06:29N 09°23' W 079°56'0 0.0
2018-Jan-20 05:59N 09°23' W 079°56'0 0.0
2018-Jan-20 05:29N 09°23' W 079°56'0 0.0
2018-Jan-20 04:59N 09°23' W 079°56'0 0.0
2018-Jan-20 04:29N 09°23' W 079°56'0 0.0
2018-Jan-20 03:59N 09°23' W 079°56'0 0.0
2018-Jan-20 03:29N 09°23' W 079°56'0 0.0
2018-Jan-20 02:56N 09°23' W 079°56'0 0.1
2018-Jan-20 02:29N 09°23' W 079°56'0 0.0
2018-Jan-20 01:56N 09°23' W 079°56'0 0.0
2018-Jan-20 01:29N 09°23' W 079°56'0 0.0
2018-Jan-20 00:59N 09°23' W 079°56'0 0.0
2018-Jan-20 00:26N 09°23' W 079°56'0 0.0
2018-Jan-19 23:59N 09°23' W 079°56'0 0.0
2018-Jan-19 23:26N 09°23' W 079°56'0 0.0
2018-Jan-19 22:59N 09°23' W 079°56'0 0.0
2018-Jan-19 22:29N 09°23' W 079°56'0 0.0
2018-Jan-19 21:59N 09°23' W 079°56'0 0.0
2018-Jan-19 21:29N 09°23' W 079°56'0 0.1
2018-Jan-19 20:59N 09°23' W 079°56'0 0.0
2018-Jan-19 20:29N 09°23' W 079°56'0 0.0
2018-Jan-19 19:59N 09°23' W 079°56'0 0.0
2018-Jan-19 19:29N 09°23' W 079°56'0 0.0
2018-Jan-19 18:59N 09°23' W 079°56'0 0.0
2018-Jan-19 18:29N 09°23' W 079°56'0 0.0
2018-Jan-19 17:59N 09°23' W 079°56'0 0.0
2018-Jan-19 17:29N 09°23' W 079°56'0 0.1
2018-Jan-19 16:59N 09°23' W 079°56'0 0.2
2018-Jan-19 16:29N 09°23' W 079°56'0 0.3
2018-Jan-19 15:59N 09°23' W 079°56'0 0.1
2018-Jan-19 15:29N 09°23' W 079°56'0 0.0
2018-Jan-19 14:59N 09°23' W 079°56'0 0.1
2018-Jan-19 14:30N 09°23' W 079°56'0 0.1
2018-Jan-19 14:00N 09°23' W 079°56'1 1.4
2018-Jan-19 13:30N 09°23' W 079°55'2 5.0
2018-Jan-19 13:00N 09°26' W 079°55'3 5.5
2018-Jan-19 12:30N 09°25' W 079°58'0 0.6
2018-Jan-19 11:58N 09°26' W 079°58'0 0.0
2018-Jan-19 11:22N 09°26' W 079°58'0 0.0
2018-Jan-19 10:58N 09°26' W 079°58'0 0.0
2018-Jan-19 10:28N 09°26' W 079°58'0 0.0
2018-Jan-19 09:58N 09°26' W 079°58'0 0.0
2018-Jan-19 09:28N 09°26' W 079°58'0 0.0
2018-Jan-19 08:58N 09°26' W 079°58'0 0.0
2018-Jan-19 08:28N 09°26' W 079°58'0 0.0
2018-Jan-19 07:58N 09°26' W 079°58'0 0.0
2018-Jan-19 07:28N 09°26' W 079°58'0 0.0
2018-Jan-19 06:58N 09°26' W 079°58'0 0.0
2018-Jan-19 06:28N 09°26' W 079°58'0 0.0
2018-Jan-19 05:58N 09°26' W 079°58'0 0.1
2018-Jan-19 05:28N 09°26' W 079°58'0 0.1
2018-Jan-19 05:00N 09°26' W 079°58'0 0.0
2018-Jan-19 03:07N 09°26' W 079°58'0 0.0
2018-Jan-19 02:58N 09°26' W 079°58'0 0.1
2018-Jan-19 02:29N 09°26' W 079°58'0 0.0
2018-Jan-19 02:00N 09°26' W 079°58'0 0.0
2018-Jan-19 01:30N 09°26' W 079°58'0 0.0
2018-Jan-19 01:00N 09°26' W 079°58'0 0.0
2018-Jan-19 00:27N 09°26' W 079°58'0 0.1
2018-Jan-19 00:00N 09°26' W 079°58'0 0.0
2018-Jan-18 23:30N 09°26' W 079°58'0 0.1
2018-Jan-18 23:00N 09°26' W 079°58'0 0.2
2018-Jan-18 22:30N 09°25' W 079°58'0 0.2
2018-Jan-18 22:00N 09°26' W 079°58'0 0.1
2018-Jan-18 21:30N 09°26' W 079°58'0 0.0
2018-Jan-18 21:00N 09°26' W 079°58'0 0.0
2018-Jan-18 20:30N 09°26' W 079°58'0 0.0
2018-Jan-18 20:00N 09°25' W 079°58'0 0.0
2018-Jan-18 19:28N 09°25' W 079°58'0 0.0
2018-Jan-18 18:59N 09°25' W 079°58'0 0.0
2018-Jan-18 18:29N 09°25' W 079°58'0 0.0
2018-Jan-18 17:59N 09°25' W 079°58'0 0.0
2018-Jan-18 17:29N 09°25' W 079°58'0 0.1
2018-Jan-18 16:56N 09°25' W 079°58'0 0.1
2018-Jan-18 16:29N 09°26' W 079°58'0 0.2
2018-Jan-18 15:59N 09°25' W 079°58'0 0.3
2018-Jan-18 15:29N 09°26' W 079°58'0 0.3
2018-Jan-18 15:00N 09°25' W 079°58'0 0.1
2018-Jan-18 14:30N 09°26' W 079°58'0 0.1
2018-Jan-18 13:54N 09°25' W 079°58'0 0.2
2018-Jan-18 13:27N 09°26' W 079°58'0 0.1
2018-Jan-18 12:59N 09°26' W 079°58'0 0.0
2018-Jan-18 12:29N 09°26' W 079°58'0 0.1
2018-Jan-18 11:59N 09°26' W 079°58'0 0.0
2018-Jan-18 11:22N 09°25' W 079°58'0 0.0
2018-Jan-18 10:58N 09°25' W 079°58'0 0.1
2018-Jan-18 10:28N 09°26' W 079°58'0 0.1
2018-Jan-18 09:59N 09°26' W 079°58'0 0.0
2018-Jan-18 09:30N 09°26' W 079°58'0 0.1
2018-Jan-18 08:58N 09°26' W 079°58'0 0.1
2018-Jan-18 08:28N 09°25' W 079°58'0 0.0
2018-Jan-18 07:58N 09°25' W 079°58'0 0.1
2018-Jan-18 07:28N 09°25' W 079°58'0 0.0
2018-Jan-18 07:00N 09°25' W 079°58'0 0.0
2018-Jan-18 06:30N 09°25' W 079°58'0 0.1
2018-Jan-18 05:58N 09°25' W 079°58'0 0.0
2018-Jan-18 05:25N 09°25' W 079°58'0 0.0
2018-Jan-18 04:59N 09°25' W 079°58'0 0.0
2018-Jan-18 04:29N 09°25' W 079°58'0 0.0
2018-Jan-18 04:00N 09°25' W 079°58'0 0.1
2018-Jan-18 03:29N 09°26' W 079°58'0 0.2
2018-Jan-18 03:00N 09°26' W 079°58'0 0.1
2018-Jan-18 02:30N 09°25' W 079°58'1 1.9
2018-Jan-18 02:00N 09°25' W 079°59'2 4.9
2018-Jan-18 01:31N 09°28' W 079°59'611.2
2018-Jan-18 01:00N 09°31' W 079°54'  
2018-Jan-11 12:54N 29°44' W 095°08'0 0.4
2018-Jan-11 12:30N 29°44' W 095°08'2 3.5
2018-Jan-11 12:00N 29°45' W 095°06'2 4.2
2018-Jan-11 11:30N 29°44' W 095°04'4 7.1
2018-Jan-11 11:01N 29°42' W 095°01'510.9
2018-Jan-11 10:30N 29°37' W 094°58'510.0
2018-Jan-11 10:00N 29°33' W 094°55'612.4
2018-Jan-11 09:30N 29°28' W 094°51'612.4
2018-Jan-11 09:00N 29°22' W 094°48'  

Dump ship's entire track history